Buxtehude — V2BY8 — position and weather

sailwx.info

Track history (hours):
 
Tides and Currents Weather Stations Pressure Air Temp Water Temp Dewpoint Dewpoint Depression Visibility Wind Speed Wind Dir Waves Ship Positions

Buxtehude

Last reported at 2018-Jun-22 02:35 UTC. Time now 2018-Jun-22 09:21 UTC.
Position N 37°20' E 015°27'.

Length 134 m; draft 6.3 m.

Type: Cargo ship. MMSI: 304962000.

Date/timePositionNaut miles runAvg speedWind from/ knotsBaromVisibWave heightAir tempDewpointWater temp
2018-Jun-22 02:35N 37°20' E 015°27'1 2.8
2018-Jun-22 02:20N 37°20' E 015°27'2 1.6
2018-Jun-22 01:14N 37°22' E 015°27'0 1.6
2018-Jun-22 01:00N 37°22' E 015°27'1 1.5
2018-Jun-22 00:21N 37°23' E 015°26'1 1.5
2018-Jun-22 00:00N 37°23' E 015°26'1 1.5
2018-Jun-21 23:25N 37°24' E 015°25'1 1.4
2018-Jun-21 22:41N 37°25' E 015°25'1 1.4
2018-Jun-21 22:12N 37°26' E 015°24'1 1.3
2018-Jun-21 21:46N 37°26' E 015°24'0 1.3
2018-Jun-21 21:24N 37°26' E 015°23'70 7.1
2018-Jun-21 11:29N 36°19' E 014°57'714.5
2018-Jun-21 10:59N 36°13' E 014°53'714.1
2018-Jun-21 10:30N 36°07' E 014°49'714.0
2018-Jun-21 10:00N 36°01' E 014°44'6 0.1
2018-Jun-19 17:11N 36°02' E 014°51'313.0
2018-Jun-19 16:57N 36°05' E 014°51'8413.1
2018-Jun-19 10:32N 37°19' E 015°42'012.9
2018-Jun-19 10:30N 37°19' E 015°42'1212.7
2018-Jun-19 09:31N 37°30' E 015°50'112.4
2018-Jun-19 09:28N 37°30' E 015°50'1512.5
2018-Jun-19 08:18N 37°43' E 015°60'413.0
2018-Jun-19 07:59N 37°46' E 016°02'  
2018-Jun-12 04:24N 38°38' E 016°56'  
Track history (hours):
 
Tides and Currents Weather Stations Pressure Air Temp Water Temp Dewpoint Dewpoint Depression Visibility Wind Speed Wind Dir Waves Ship Positions

Buxtehude

Last reported at 2018-Jun-22 02:35 UTC. Time now 2018-Jun-22 09:21 UTC.
Position N 37°20' E 015°27'.

Length 134 m; draft 6.3 m.

Type: Cargo ship. MMSI: 304962000.

Date/timePositionNaut miles runAvg speedWind from/ knotsBaromVisibWave heightAir tempDewpointWater temp
2018-Jun-22 02:35N 37°20' E 015°27'1 2.8
2018-Jun-22 02:20N 37°20' E 015°27'2 1.6
2018-Jun-22 01:14N 37°22' E 015°27'0 1.6
2018-Jun-22 01:00N 37°22' E 015°27'1 1.5
2018-Jun-22 00:21N 37°23' E 015°26'1 1.5
2018-Jun-22 00:00N 37°23' E 015°26'1 1.5
2018-Jun-21 23:25N 37°24' E 015°25'1 1.4
2018-Jun-21 22:41N 37°25' E 015°25'1 1.4
2018-Jun-21 22:12N 37°26' E 015°24'1 1.3
2018-Jun-21 21:46N 37°26' E 015°24'0 1.3
2018-Jun-21 21:24N 37°26' E 015°23'70 7.1
2018-Jun-21 11:29N 36°19' E 014°57'714.5
2018-Jun-21 10:59N 36°13' E 014°53'714.1
2018-Jun-21 10:30N 36°07' E 014°49'714.0
2018-Jun-21 10:00N 36°01' E 014°44'6 0.1
2018-Jun-19 17:11N 36°02' E 014°51'313.0
2018-Jun-19 16:57N 36°05' E 014°51'8413.1
2018-Jun-19 10:32N 37°19' E 015°42'012.9
2018-Jun-19 10:30N 37°19' E 015°42'1212.7
2018-Jun-19 09:31N 37°30' E 015°50'112.4
2018-Jun-19 09:28N 37°30' E 015°50'1512.5
2018-Jun-19 08:18N 37°43' E 015°60'413.0
2018-Jun-19 07:59N 37°46' E 016°02'  
2018-Jun-12 04:24N 38°38' E 016°56'  

Dump ship's entire track history